Time;durP1;ratioP1;P1;durP2;ratioP2;P2;SDS_P1;SDS_P2;PMS_P1;PMS_P2;Temp;Humidity;BMP_temperature;BMP_pressure;BME280_temperature;BME280_humidity;BME280_pressure;Samples;Min_cycle;Max_cycle;Signal;HPM_P1;HPM_P2
2022/05/11 00:01:10;;;;;;;;;;;28.40;40.50;;;;;;5136978;27;892;-44
2022/05/11 00:03:36;;;;;;;;;;;28.40;39.40;;;;;;5137016;27;875;-44
2022/05/11 00:06:03;;;;;;;;;;;28.40;39.30;;;;;;5137540;27;1050;-42
2022/05/11 00:08:30;;;;;;;;;;;28.40;39.30;;;;;;5137730;27;928;-44
2022/05/11 00:10:58;;;;;;;;;;;28.40;39.30;;;;;;5137691;27;928;-43
2022/05/11 00:13:25;;;;;;;;;;;28.40;39.30;;;;;;5137540;27;1040;-43
2022/05/11 00:15:52;;;;;;;;;;;28.40;39.30;;;;;;5138178;27;1988;-43
2022/05/11 00:18:19;;;;;;;;;;;28.40;39.30;;;;;;5138660;27;1787;-44
2022/05/11 00:20:45;;;;;;;;;;;28.40;39.30;;;;;;5136227;27;913;-43
2022/05/11 00:23:12;;;;;;;;;;;28.40;39.20;;;;;;5138439;27;1106;-43
2022/05/11 00:25:39;;;;;;;;;;;28.40;39.20;;;;;;5137331;27;988;-44
2022/05/11 00:28:07;;;;;;;;;;;28.40;39.20;;;;;;5136573;27;1181;-44
2022/05/11 00:30:33;;;;;;;;;;;28.40;39.30;;;;;;5137035;27;1008;-44
2022/05/11 00:33:01;;;;;;;;;;;28.40;39.20;;;;;;5136379;27;983;-43
2022/05/11 00:35:28;;;;;;;;;;;28.40;39.30;;;;;;5136774;27;842;-43
2022/05/11 00:37:55;;;;;;;;;;;28.40;39.40;;;;;;5136388;27;1976;-43
2022/05/11 00:40:22;;;;;;;;;;;28.40;39.30;;;;;;5137779;27;977;-42
2022/05/11 00:42:49;;;;;;;;;;;28.30;39.30;;;;;;5138327;27;999;-44
2022/05/11 00:45:17;;;;;;;;;;;28.40;39.30;;;;;;5138603;27;971;-42
2022/05/11 00:47:46;;;;;;;;;;;28.40;39.30;;;;;;5138126;27;972;-43
2022/05/11 00:50:14;;;;;;;;;;;28.40;39.20;;;;;;5137485;27;937;-45
2022/05/11 00:52:44;;;;;;;;;;;28.40;39.20;;;;;;5137295;27;1463;-44
2022/05/11 00:55:13;;;;;;;;;;;28.40;39.20;;;;;;5138029;27;1003;-46
2022/05/11 00:57:42;;;;;;;;;;;28.40;39.10;;;;;;5138236;27;1906;-45
2022/05/11 01:00:11;;;;;;;;;;;28.50;39.20;;;;;;5137087;27;981;-45
2022/05/11 01:02:40;;;;;;;;;;;28.40;39.20;;;;;;5137715;27;940;-45
2022/05/11 01:05:08;;;;;;;;;;;28.50;39.20;;;;;;5136578;27;996;-45
2022/05/11 01:07:36;;;;;;;;;;;28.50;39.20;;;;;;5137541;27;1033;-45
2022/05/11 01:10:02;;;;;;;;;;;28.40;39.20;;;;;;5136608;27;862;-45
2022/05/11 01:12:32;;;;;;;;;;;28.40;39.20;;;;;;5136090;27;1032;-45
2022/05/11 01:15:00;;;;;;;;;;;28.40;39.30;;;;;;5135674;27;948;-45
2022/05/11 01:17:27;;;;;;;;;;;28.40;39.40;;;;;;5137322;27;1984;-45
2022/05/11 01:19:55;;;;;;;;;;;28.40;39.30;;;;;;5135766;27;985;-45
2022/05/11 01:22:27;;;;;;;;;;;28.40;39.30;;;;;;5136856;27;1090;-45
2022/05/11 01:24:55;;;;;;;;;;;28.40;39.30;;;;;;5135333;27;964;-45
2022/05/11 01:27:27;;;;;;;;;;;28.40;39.30;;;;;;5136208;27;988;-45
2022/05/11 01:29:54;;;;;;;;;;;28.40;39.40;;;;;;5135986;27;1015;-45
2022/05/11 01:32:22;;;;;;;;;;;28.40;39.40;;;;;;5136909;27;956;-45
2022/05/11 01:34:49;;;;;;;;;;;28.40;39.30;;;;;;5136283;27;999;-45
2022/05/11 01:37:16;;;;;;;;;;;28.40;39.40;;;;;;5135595;27;1901;-45
2022/05/11 01:39:44;;;;;;;;;;;28.40;39.40;;;;;;5136454;27;1000;-46
2022/05/11 01:42:13;;;;;;;;;;;28.40;39.30;;;;;;5137942;27;1015;-45
2022/05/11 01:44:40;;;;;;;;;;;28.40;39.30;;;;;;5137675;27;952;-45
2022/05/11 01:47:07;;;;;;;;;;;28.40;39.30;;;;;;5137418;27;979;-45
2022/05/11 01:49:34;;;;;;;;;;;28.40;39.30;;;;;;5137227;27;1026;-45
2022/05/11 01:52:00;;;;;;;;;;;28.40;39.20;;;;;;5136661;27;969;-44
2022/05/11 01:54:27;;;;;;;;;;;28.40;39.30;;;;;;5137133;27;1262;-45
2022/05/11 01:56:54;;;;;;;;;;;28.40;39.40;;;;;;5136431;27;1984;-45
2022/05/11 01:59:22;;;;;;;;;;;28.40;39.80;;;;;;5135888;27;977;-46
2022/05/11 02:01:49;;;;;;;;;;;28.40;39.40;;;;;;5136089;27;921;-43
2022/05/11 02:09:44;;;;;;;;;;;28.50;39.30;;;;;;5136812;27;609;-45
2022/05/11 02:12:12;;;;;;;;;;;28.40;39.20;;;;;;5136179;27;940;-45
2022/05/11 02:14:40;;;;;;;;;;;28.40;39.10;;;;;;5137401;27;940;-45
2022/05/11 02:17:07;;;;;;;;;;;28.40;39.20;;;;;;5136796;27;1909;-45
2022/05/11 02:19:34;;;;;;;;;;;28.40;39.20;;;;;;5137294;27;1044;-45
2022/05/11 02:22:00;;;;;;;;;;;28.40;39.20;;;;;;5137365;27;1019;-43
2022/05/11 02:24:27;;;;;;;;;;;28.30;39.20;;;;;;5137148;27;939;-45
2022/05/11 02:26:54;;;;;;;;;;;28.40;39.30;;;;;;5136795;27;933;-45
2022/05/11 02:29:21;;;;;;;;;;;28.40;39.20;;;;;;5137234;27;999;-45
2022/05/11 02:31:50;;;;;;;;;;;28.40;39.20;;;;;;5135417;27;929;-45
2022/05/11 02:36:57;;;;;;;;;;;28.40;39.30;;;;;;5134393;27;1901;-45
2022/05/11 02:39:24;;;;;;;;;;;28.40;39.30;;;;;;5136158;27;1039;-45
2022/05/11 02:41:50;;;;;;;;;;;28.40;39.30;;;;;;5136927;27;972;-45
2022/05/11 02:44:17;;;;;;;;;;;28.40;39.30;;;;;;5135673;27;1120;-45
2022/05/11 02:46:44;;;;;;;;;;;28.30;39.10;;;;;;5135586;27;1011;-45
2022/05/11 02:49:12;;;;;;;;;;;28.40;39.20;;;;;;5137101;27;940;-45
2022/05/11 02:51:39;;;;;;;;;;;28.40;39.30;;;;;;5134867;27;894;-45
2022/05/11 02:54:05;;;;;;;;;;;28.40;39.20;;;;;;5135522;27;1062;-45
2022/05/11 02:56:32;;;;;;;;;;;28.40;39.30;;;;;;5135456;28;1989;-45
2022/05/11 02:58:59;;;;;;;;;;;28.40;39.20;;;;;;5136373;28;1047;-46
2022/05/11 03:01:26;;;;;;;;;;;28.30;39.30;;;;;;5135116;28;972;-45
2022/05/11 03:03:52;;;;;;;;;;;28.30;39.30;;;;;;5135501;28;1002;-47
2022/05/11 03:06:20;;;;;;;;;;;28.30;39.20;;;;;;5135015;28;1008;-45
2022/05/11 03:08:47;;;;;;;;;;;28.40;39.30;;;;;;5135832;28;1013;-45
2022/05/11 03:11:14;;;;;;;;;;;28.40;39.30;;;;;;5135856;28;845;-45
2022/05/11 03:13:41;;;;;;;;;;;28.30;39.20;;;;;;5136086;28;1016;-46
2022/05/11 03:16:08;;;;;;;;;;;28.30;40.40;;;;;;5135857;28;928;-45
2022/05/11 03:18:34;;;;;;;;;;;28.30;39.20;;;;;;5135015;28;1976;-45
2022/05/11 03:21:01;;;;;;;;;;;28.30;39.20;;;;;;5135522;28;1008;-45
2022/05/11 03:23:29;;;;;;;;;;;28.30;39.20;;;;;;5135372;28;980;-45
2022/05/11 03:25:56;;;;;;;;;;;28.30;39.20;;;;;;5133994;28;999;-45
2022/05/11 03:28:23;;;;;;;;;;;28.30;39.30;;;;;;5135488;28;971;-45
2022/05/11 03:30:50;;;;;;;;;;;28.30;39.20;;;;;;5134179;28;900;-45
2022/05/11 03:36:00;;;;;;;;;;;28.30;39.20;;;;;;5135990;28;599;-45
2022/05/11 03:38:27;;;;;;;;;;;28.30;39.20;;;;;;5134371;28;1909;-45
2022/05/11 03:40:55;;;;;;;;;;;28.30;39.20;;;;;;5133752;28;1007;-45
2022/05/11 03:43:22;;;;;;;;;;;28.30;39.20;;;;;;5134834;28;970;-45
2022/05/11 03:45:49;;;;;;;;;;;28.30;39.30;;;;;;5134443;28;1018;-46
2022/05/11 03:48:17;;;;;;;;;;;28.30;39.20;;;;;;5135676;28;1023;-42
2022/05/11 03:50:43;;;;;;;;;;;28.30;39.20;;;;;;5135409;28;940;-44
2022/05/11 03:53:10;;;;;;;;;;;28.30;39.20;;;;;;5134177;28;1015;-43
2022/05/11 03:55:37;;;;;;;;;;;28.30;39.10;;;;;;5133229;28;1016;-42
2022/05/11 03:58:05;;;;;;;;;;;28.30;39.20;;;;;;5134036;28;1910;-43
2022/05/11 04:00:32;;;;;;;;;;;28.30;39.20;;;;;;5134558;27;872;-43
2022/05/11 04:02:59;;;;;;;;;;;28.40;39.30;;;;;;5137623;27;1114;-43
2022/05/11 04:05:27;;;;;;;;;;;28.30;39.20;;;;;;5136993;27;892;-44
2022/05/11 04:07:54;;;;;;;;;;;28.30;39.30;;;;;;5136464;27;942;-45
2022/05/11 04:10:21;;;;;;;;;;;28.30;39.20;;;;;;5137298;27;811;-46
2022/05/11 04:12:48;;;;;;;;;;;28.30;39.20;;;;;;5137025;27;976;-45
2022/05/11 04:15:17;;;;;;;;;;;28.30;39.20;;;;;;5137296;27;884;-44
2022/05/11 04:17:44;;;;;;;;;;;28.30;39.20;;;;;;5136386;27;1906;-42
2022/05/11 04:20:12;;;;;;;;;;;28.30;39.20;;;;;;5136191;27;980;-44
2022/05/11 04:22:39;;;;;;;;;;;28.30;39.20;;;;;;5136827;27;1016;-43
2022/05/11 04:25:06;;;;;;;;;;;28.30;39.20;;;;;;5135962;27;881;-43
2022/05/11 04:27:33;;;;;;;;;;;28.30;39.20;;;;;;5136915;27;1456;-42
2022/05/11 04:30:01;;;;;;;;;;;28.30;39.20;;;;;;5136776;27;1008;-43
2022/05/11 04:32:29;;;;;;;;;;;28.30;39.20;;;;;;5136938;27;913;-42
2022/05/11 04:34:56;;;;;;;;;;;28.30;39.20;;;;;;5135346;27;995;-43
2022/05/11 04:37:23;;;;;;;;;;;28.30;39.30;;;;;;5134309;27;1929;-43
2022/05/11 04:39:50;;;;;;;;;;;28.30;39.30;;;;;;5134162;27;925;-44
2022/05/11 04:42:17;;;;;;;;;;;28.30;39.30;;;;;;5135646;27;987;-44
2022/05/11 04:44:44;;;;;;;;;;;28.30;39.20;;;;;;5135181;27;1012;-44
2022/05/11 04:47:11;;;;;;;;;;;28.30;39.30;;;;;;5135483;27;1334;-44
2022/05/11 04:49:40;;;;;;;;;;;28.30;39.30;;;;;;5132545;27;1005;-44
2022/05/11 04:52:08;;;;;;;;;;;28.30;39.20;;;;;;5131326;27;1023;-44
2022/05/11 04:54:35;;;;;;;;;;;28.30;39.20;;;;;;5133839;27;1029;-43
2022/05/11 04:57:02;;;;;;;;;;;28.30;39.30;;;;;;5134225;27;1985;-44
2022/05/11 04:59:29;;;;;;;;;;;28.30;39.20;;;;;;5135661;27;1016;-44
2022/05/11 05:01:57;;;;;;;;;;;28.30;39.30;;;;;;5134018;27;983;-44
2022/05/11 05:04:24;;;;;;;;;;;28.30;39.30;;;;;;5133658;27;983;-42
2022/05/11 05:06:52;;;;;;;;;;;28.30;39.30;;;;;;5132518;27;885;-43
2022/05/11 05:09:18;;;;;;;;;;;28.30;39.30;;;;;;5133505;27;980;-43
2022/05/11 05:11:45;;;;;;;;;;;28.30;39.20;;;;;;5132110;27;1015;-43
2022/05/11 05:14:12;;;;;;;;;;;28.20;39.30;;;;;;5129276;27;936;-42
2022/05/11 05:16:39;;;;;;;;;;;28.20;39.30;;;;;;5129625;27;879;-44
2022/05/11 05:19:06;;;;;;;;;;;28.20;39.30;;;;;;5127441;27;1909;-43
2022/05/11 05:21:33;;;;;;;;;;;28.20;39.50;;;;;;5126944;27;932;-43
2022/05/11 05:24:01;;;;;;;;;;;28.20;39.40;;;;;;5125424;27;996;-44
2022/05/11 05:26:28;;;;;;;;;;;28.30;39.60;;;;;;5123751;27;997;-44
2022/05/11 05:31:39;;;;;;;;;;;28.20;39.40;;;;;;5124952;27;887;-44
2022/05/11 05:34:06;;;;;;;;;;;28.20;39.50;;;;;;5125735;27;900;-44
2022/05/11 05:36:35;;;;;;;;;;;28.30;39.60;;;;;;5125946;27;1572;-43
2022/05/11 05:39:04;;;;;;;;;;;28.20;39.50;;;;;;5125701;27;1905;-44
2022/05/11 05:41:31;;;;;;;;;;;28.20;39.50;;;;;;5125109;27;995;-42
2022/05/11 05:43:58;;;;;;;;;;;28.20;39.50;;;;;;5127001;27;1107;-42
2022/05/11 05:46:25;;;;;;;;;;;28.20;39.60;;;;;;5128310;27;960;-44
2022/05/11 05:48:52;;;;;;;;;;;28.20;39.50;;;;;;5129404;27;1839;-41
2022/05/11 05:51:19;;;;;;;;;;;28.20;39.50;;;;;;5106669;27;1015;-44
2022/05/11 05:53:46;;;;;;;;;;;28.20;39.60;;;;;;5103511;27;1067;-44
2022/05/11 05:56:15;;;;;;;;;;;28.20;39.50;;;;;;5124657;27;922;-44
2022/05/11 05:58:44;;;;;;;;;;;28.30;39.30;;;;;;5128289;27;1905;-44
2022/05/11 06:01:11;;;;;;;;;;;28.30;39.30;;;;;;5127927;27;889;-44
2022/05/11 06:03:38;;;;;;;;;;;28.30;39.60;;;;;;5128590;27;999;-44
2022/05/11 06:06:06;;;;;;;;;;;28.20;39.60;;;;;;5126692;27;1160;-43
2022/05/11 06:08:33;;;;;;;;;;;28.20;39.70;;;;;;5127981;27;963;-43
2022/05/11 06:10:59;;;;;;;;;;;28.20;39.70;;;;;;5127602;27;1008;-44
2022/05/11 06:13:28;;;;;;;;;;;28.20;39.80;;;;;;5124914;27;1035;-44
2022/05/11 06:15:55;;;;;;;;;;;28.20;39.90;;;;;;5126038;27;901;-44
2022/05/11 06:18:22;;;;;;;;;;;28.20;39.80;;;;;;5126591;27;1914;-43
2022/05/11 06:20:51;;;;;;;;;;;28.20;39.80;;;;;;5128359;27;984;-45
2022/05/11 06:23:18;;;;;;;;;;;28.20;39.80;;;;;;5128082;27;1011;-47
2022/05/11 06:25:45;;;;;;;;;;;28.30;39.70;;;;;;5127520;27;944;-47
2022/05/11 06:28:12;;;;;;;;;;;28.30;39.50;;;;;;5123883;27;968;-48
2022/05/11 06:30:40;;;;;;;;;;;28.30;39.90;;;;;;5125613;27;860;-48
2022/05/11 06:33:06;;;;;;;;;;;28.30;39.90;;;;;;5127309;27;1014;-46
2022/05/11 06:35:34;;;;;;;;;;;28.30;40.00;;;;;;5126032;27;945;-46
2022/05/11 06:38:02;;;;;;;;;;;28.40;40.10;;;;;;5127189;27;1988;-46
2022/05/11 06:40:28;;;;;;;;;;;28.40;40.10;;;;;;5128038;27;993;-46
2022/05/11 06:42:55;;;;;;;;;;;28.40;40.30;;;;;;5126150;27;989;-47
2022/05/11 06:45:23;;;;;;;;;;;28.50;40.10;;;;;;5126048;27;929;-47
2022/05/11 06:47:53;;;;;;;;;;;28.50;40.00;;;;;;5128261;27;965;-47
2022/05/11 06:50:20;;;;;;;;;;;28.40;40.40;;;;;;5127639;27;997;-47
2022/05/11 06:52:47;;;;;;;;;;;28.30;40.40;;;;;;5127176;27;1125;-47
2022/05/11 07:00:42;;;;;;;;;;;28.30;40.50;;;;;;5127424;28;613;-47
2022/05/11 07:03:10;;;;;;;;;;;28.30;40.70;;;;;;5126904;28;1074;-47
2022/05/11 07:05:37;;;;;;;;;;;28.30;40.60;;;;;;5126962;28;884;-48
2022/05/11 07:08:04;;;;;;;;;;;28.30;40.40;;;;;;5125806;28;992;-47
2022/05/11 07:10:32;;;;;;;;;;;28.30;40.50;;;;;;5126000;28;877;-47
2022/05/11 07:12:57;;;;;;;;;;;28.30;40.50;;;;;;5126892;28;947;-47
2022/05/11 07:15:25;;;;;;;;;;;28.40;40.60;;;;;;5125143;28;927;-47
2022/05/11 07:17:53;;;;;;;;;;;28.30;40.40;;;;;;5125990;28;1981;-47
2022/05/11 07:20:23;;;;;;;;;;;28.30;40.40;;;;;;5125780;28;872;-47
2022/05/11 07:22:50;;;;;;;;;;;28.30;40.50;;;;;;5126207;28;1007;-47
2022/05/11 07:25:18;;;;;;;;;;;28.30;40.40;;;;;;5125607;28;924;-47
2022/05/11 07:27:45;;;;;;;;;;;28.40;40.50;;;;;;5123586;28;1003;-47
2022/05/11 07:30:12;;;;;;;;;;;28.40;40.40;;;;;;5124384;28;996;-47
2022/05/11 07:32:39;;;;;;;;;;;28.50;40.20;;;;;;5125590;28;891;-48
2022/05/11 07:35:06;;;;;;;;;;;28.40;40.10;;;;;;5128221;27;884;-48
2022/05/11 07:37:35;;;;;;;;;;;28.40;40.30;;;;;;5129209;27;874;-47
2022/05/11 07:40:02;;;;;;;;;;;28.40;40.10;;;;;;5129950;27;1914;-47
2022/05/11 07:42:29;;;;;;;;;;;28.50;40.20;;;;;;5130293;27;932;-48
2022/05/11 07:44:56;;;;;;;;;;;28.50;40.20;;;;;;5128739;27;868;-47
2022/05/11 07:47:24;;;;;;;;;;;28.50;40.20;;;;;;5132022;27;940;-47
2022/05/11 07:49:50;;;;;;;;;;;28.60;40.20;;;;;;5131961;27;1012;-47
2022/05/11 07:52:17;;;;;;;;;;;28.60;40.00;;;;;;5133036;27;941;-47
2022/05/11 07:54:45;;;;;;;;;;;28.60;39.90;;;;;;5131368;27;1087;-47
2022/05/11 07:59:57;;;;;;;;;;;28.60;40.10;;;;;;5131834;27;1909;-48
2022/05/11 08:02:27;;;;;;;;;;;28.60;40.10;;;;;;5131610;27;947;-47
2022/05/11 08:04:57;;;;;;;;;;;28.60;40.00;;;;;;5132037;27;967;-46
2022/05/11 08:07:26;;;;;;;;;;;28.60;40.10;;;;;;5131036;27;988;-47
2022/05/11 08:09:54;;;;;;;;;;;28.50;40.00;;;;;;5129224;27;869;-47
2022/05/11 08:12:21;;;;;;;;;;;28.50;40.10;;;;;;5132337;27;864;-47
2022/05/11 08:14:48;;;;;;;;;;;28.50;40.10;;;;;;5131650;27;881;-47
2022/05/11 08:17:15;;;;;;;;;;;28.50;40.10;;;;;;5132336;27;1070;-47
2022/05/11 08:19:42;;;;;;;;;;;28.60;40.10;;;;;;5131432;27;1917;-48
2022/05/11 08:22:09;;;;;;;;;;;28.60;40.00;;;;;;5129085;27;1145;-47
2022/05/11 08:24:37;;;;;;;;;;;28.60;40.10;;;;;;5127960;27;1015;-45
2022/05/11 08:27:09;;;;;;;;;;;28.60;40.00;;;;;;5127943;27;893;-48
2022/05/11 08:35:10;;;;;;;;;;;28.60;39.80;;;;;;5100039;27;1078;-47
2022/05/11 08:37:37;;;;;;;;;;;28.60;39.90;;;;;;5125803;27;992;-44
2022/05/11 08:40:05;;;;;;;;;;;28.60;39.90;;;;;;5128675;27;1968;-47
2022/05/11 08:42:34;;;;;;;;;;;28.60;40.10;;;;;;5130813;27;1000;-47
2022/05/11 08:45:01;;;;;;;;;;;28.50;39.90;;;;;;5129557;27;1015;-44
2022/05/11 08:47:33;;;;;;;;;;;28.50;40.00;;;;;;5130408;27;947;-45
2022/05/11 08:50:06;;;;;;;;;;;28.50;40.10;;;;;;5127171;27;1071;-46
2022/05/11 08:52:37;;;;;;;;;;;28.50;40.00;;;;;;5131844;27;922;-46
2022/05/11 08:55:08;;;;;;;;;;;28.50;40.20;;;;;;5131231;27;1536;-45
2022/05/11 08:57:37;;;;;;;;;;;28.40;40.20;;;;;;5130463;27;968;-46
2022/05/11 09:00:07;;;;;;;;;;;28.40;40.30;;;;;;5130879;27;1897;-46
2022/05/11 09:02:37;;;;;;;;;;;28.40;40.30;;;;;;5131538;27;1056;-44
2022/05/11 09:05:05;;;;;;;;;;;28.40;40.30;;;;;;5127040;27;857;-45
2022/05/11 09:07:36;;;;;;;;;;;28.30;40.30;;;;;;5130856;27;996;-45
2022/05/11 09:10:03;;;;;;;;;;;28.40;40.20;;;;;;5129792;27;885;-45
2022/05/11 09:12:30;;;;;;;;;;;28.30;40.10;;;;;;5128387;27;905;-47
2022/05/11 09:15:00;;;;;;;;;;;28.30;40.30;;;;;;5130250;27;904;-46
2022/05/11 09:17:28;;;;;;;;;;;28.40;40.20;;;;;;5127889;27;980;-47
2022/05/11 09:20:03;;;;;;;;;;;28.40;40.20;;;;;;5128563;27;1970;-47
2022/05/11 09:22:30;;;;;;;;;;;28.40;40.10;;;;;;5130571;27;1006;-47
2022/05/11 09:24:59;;;;;;;;;;;28.30;40.00;;;;;;5129236;27;991;-46
2022/05/11 09:27:26;;;;;;;;;;;28.30;40.20;;;;;;5128358;27;930;-47
2022/05/11 09:30:01;;;;;;;;;;;28.30;40.30;;;;;;5127801;27;963;-46
2022/05/11 09:32:31;;;;;;;;;;;28.30;40.00;;;;;;5126296;27;1146;-45
2022/05/11 09:35:16;;;;;;;;;;;28.40;40.10;;;;;;5128287;27;1035;-46
2022/05/11 09:37:44;;;;;;;;;;;28.40;40.00;;;;;;5128738;27;1042;-46
2022/05/11 09:40:12;;;;;;;;;;;28.40;40.00;;;;;;5127985;27;1913;-46
2022/05/11 09:42:48;;;;;;;;;;;28.40;40.00;;;;;;5128376;27;1000;-46
2022/05/11 09:45:34;;;;;;;;;;;28.40;40.00;;;;;;5128870;27;1114;-45
2022/05/11 09:48:07;;;;;;;;;;;28.40;40.10;;;;;;5121927;27;1070;-46
2022/05/11 09:50:34;;;;;;;;;;;28.40;40.10;;;;;;5128603;27;924;-46
2022/05/11 09:53:09;;;;;;;;;;;28.40;40.00;;;;;;5127041;27;1193;-46
2022/05/11 09:55:36;;;;;;;;;;;28.40;40.10;;;;;;5128358;27;963;-46
2022/05/11 09:58:06;;;;;;;;;;;28.40;40.00;;;;;;5130182;27;976;-47
2022/05/11 10:00:36;;;;;;;;;;;28.40;40.10;;;;;;5128807;27;1909;-46
2022/05/11 10:03:04;;;;;;;;;;;28.40;40.10;;;;;;5130008;27;1090;-47
2022/05/11 10:05:33;;;;;;;;;;;28.40;40.00;;;;;;5129571;27;1002;-45
2022/05/11 10:08:06;;;;;;;;;;;28.40;40.00;;;;;;5128832;27;984;-45
2022/05/11 10:10:36;;;;;;;;;;;28.40;40.10;;;;;;5128107;27;916;-46
2022/05/11 10:13:07;;;;;;;;;;;28.40;40.00;;;;;;5128128;27;1083;-45
2022/05/11 10:24:02;;;;;;;;;;;28.50;40.00;;;;;;5122357;27;1079;-45
2022/05/11 10:26:31;;;;;;;;;;;28.40;40.00;;;;;;5113543;27;1507;-46
2022/05/11 10:29:01;;;;;;;;;;;28.40;40.00;;;;;;5107522;27;1007;-45
2022/05/11 10:31:34;;;;;;;;;;;28.40;39.90;;;;;;5123900;27;1430;-46
2022/05/11 10:34:04;;;;;;;;;;;28.40;40.00;;;;;;5127456;27;993;-46
2022/05/11 10:36:37;;;;;;;;;;;28.40;40.10;;;;;;5128200;27;1015;-47
2022/05/11 10:39:12;;;;;;;;;;;28.40;40.00;;;;;;5127415;27;1905;-45
2022/05/11 10:41:42;;;;;;;;;;;28.40;40.00;;;;;;5129923;27;913;-47
2022/05/11 10:44:14;;;;;;;;;;;28.40;40.00;;;;;;5130411;27;992;-46
2022/05/11 10:46:45;;;;;;;;;;;28.40;40.10;;;;;;5127807;27;1042;-46
2022/05/11 10:49:27;;;;;;;;;;;28.40;40.00;;;;;;5126663;27;849;-45
2022/05/11 10:52:00;;;;;;;;;;;28.40;40.10;;;;;;5127005;27;1012;-45
2022/05/11 10:54:29;;;;;;;;;;;28.40;40.00;;;;;;5124135;27;1003;-45
2022/05/11 10:57:02;;;;;;;;;;;28.40;40.00;;;;;;5122261;27;949;-45
2022/05/11 10:59:48;;;;;;;;;;;28.40;40.00;;;;;;5123653;28;1984;-45
2022/05/11 11:02:33;;;;;;;;;;;28.50;40.00;;;;;;5126840;27;1429;-45
2022/05/11 11:05:08;;;;;;;;;;;28.40;40.10;;;;;;5085730;28;1476;-44
2022/05/11 11:07:38;;;;;;;;;;;28.40;39.90;;;;;;5127321;28;1000;-45
2022/05/11 11:10:22;;;;;;;;;;;28.50;40.00;;;;;;5125965;27;945;-44
2022/05/11 11:13:08;;;;;;;;;;;28.50;40.00;;;;;;5113649;27;1618;-45
2022/05/11 11:15:36;;;;;;;;;;;28.50;40.10;;;;;;5128058;27;1036;-45
2022/05/11 11:18:04;;;;;;;;;;;28.50;40.10;;;;;;5126108;27;968;-45
2022/05/11 11:20:33;;;;;;;;;;;28.40;40.00;;;;;;5127259;27;1914;-45
2022/05/11 11:23:05;;;;;;;;;;;28.50;40.20;;;;;;5121365;27;929;-45
2022/05/11 11:25:45;;;;;;;;;;;28.50;40.10;;;;;;5122327;27;854;-44
2022/05/11 11:28:14;;;;;;;;;;;28.50;40.10;;;;;;5127838;27;999;-45
2022/05/11 11:30:42;;;;;;;;;;;28.50;40.00;;;;;;5130971;27;1024;-45
2022/05/11 11:33:23;;;;;;;;;;;28.50;40.10;;;;;;5131549;27;975;-45
2022/05/11 11:35:55;;;;;;;;;;;28.50;40.20;;;;;;5131794;27;990;-44
2022/05/11 11:38:28;;;;;;;;;;;28.50;40.10;;;;;;5130535;27;944;-45
2022/05/11 11:41:11;;;;;;;;;;;28.50;40.10;;;;;;5131055;27;1897;-45
2022/05/11 11:43:43;;;;;;;;;;;28.50;40.00;;;;;;5130373;27;984;-45
2022/05/11 11:46:10;;;;;;;;;;;28.50;40.00;;;;;;5130743;27;912;-45
2022/05/11 11:48:38;;;;;;;;;;;28.50;40.10;;;;;;5128995;27;1102;-44
2022/05/11 11:51:11;;;;;;;;;;;28.50;40.00;;;;;;5129537;27;1824;-45
2022/05/11 11:53:41;;;;;;;;;;;28.50;41.10;;;;;;5130986;27;1322;-46
2022/05/11 11:56:26;;;;;;;;;;;28.50;40.00;;;;;;5129766;27;1468;-43
2022/05/11 11:59:03;;;;;;;;;;;28.50;39.90;;;;;;5127923;27;1084;-45
2022/05/11 12:01:31;;;;;;;;;;;28.50;40.10;;;;;;5129130;27;1906;-45
2022/05/11 12:04:00;;;;;;;;;;;28.50;40.00;;;;;;5109137;27;988;-45
2022/05/11 12:17:33;;;;;;;;;;;28.50;40.10;;;;;;5126933;27;1252;-47
2022/05/11 12:20:01;;;;;;;;;;;28.50;40.10;;;;;;5126420;27;1961;-45
2022/05/11 12:22:31;;;;;;;;;;;28.50;40.00;;;;;;5123784;27;978;-45
2022/05/11 12:24:59;;;;;;;;;;;28.60;40.10;;;;;;5123199;27;1027;-45
2022/05/11 12:30:48;;;;;;;;;;;28.60;40.00;;;;;;5130652;27;645;-46
2022/05/11 12:33:23;;;;;;;;;;;28.60;40.00;;;;;;5128600;27;1088;-46
2022/05/11 12:35:50;;;;;;;;;;;28.60;40.00;;;;;;5128697;27;845;-46
2022/05/11 12:38:28;;;;;;;;;;;28.60;40.00;;;;;;5126618;27;1042;-46
2022/05/11 12:40:55;;;;;;;;;;;28.60;40.00;;;;;;5126729;27;1974;-47
2022/05/11 12:43:26;;;;;;;;;;;28.60;40.00;;;;;;5126078;27;1060;-46
2022/05/11 12:45:54;;;;;;;;;;;28.60;40.10;;;;;;5127474;27;932;-46
2022/05/11 12:48:24;;;;;;;;;;;28.60;40.10;;;;;;5127000;27;921;-47
2022/05/11 12:50:52;;;;;;;;;;;28.60;40.10;;;;;;5127987;27;1031;-46
2022/05/11 12:53:24;;;;;;;;;;;28.60;40.00;;;;;;5127879;27;1617;-46
2022/05/11 12:55:53;;;;;;;;;;;28.60;40.20;;;;;;5125122;27;931;-46
2022/05/11 12:58:21;;;;;;;;;;;28.60;40.10;;;;;;5124962;27;1253;-47
2022/05/11 13:00:55;;;;;;;;;;;28.60;40.10;;;;;;5115559;27;1905;-46
2022/05/11 13:03:23;;;;;;;;;;;28.60;40.20;;;;;;5120164;27;1129;-46
2022/05/11 13:05:50;;;;;;;;;;;28.60;40.30;;;;;;5125586;27;877;-46
2022/05/11 13:08:17;;;;;;;;;;;28.60;40.20;;;;;;5127708;27;1083;-47
2022/05/11 13:10:44;;;;;;;;;;;28.60;40.20;;;;;;5130215;27;876;-47
2022/05/11 13:13:15;;;;;;;;;;;28.50;40.20;;;;;;5130116;27;1273;-47
2022/05/11 13:15:43;;;;;;;;;;;28.60;40.30;;;;;;5128288;27;849;-47
2022/05/11 13:18:12;;;;;;;;;;;28.60;40.40;;;;;;5130040;27;1124;-46
2022/05/11 13:20:40;;;;;;;;;;;28.50;40.30;;;;;;5130601;27;1914;-47
2022/05/11 13:23:12;;;;;;;;;;;28.60;40.40;;;;;;5129886;27;980;-47
2022/05/11 13:25:41;;;;;;;;;;;28.60;40.30;;;;;;5129728;27;953;-47
2022/05/11 13:28:11;;;;;;;;;;;28.60;40.40;;;;;;5129724;27;1031;-45
2022/05/11 13:30:44;;;;;;;;;;;28.60;40.40;;;;;;5124815;27;917;-45
2022/05/11 13:33:28;;;;;;;;;;;28.60;40.30;;;;;;5124999;27;1004;-45
2022/05/11 13:36:04;;;;;;;;;;;28.60;40.30;;;;;;5126858;27;921;-44
2022/05/11 13:38:31;;;;;;;;;;;28.60;40.30;;;;;;5127244;27;1103;-46
2022/05/11 13:40:59;;;;;;;;;;;28.60;40.30;;;;;;5128078;27;2000;-46
2022/05/11 13:43:29;;;;;;;;;;;28.60;41.40;;;;;;5128074;27;908;-47
2022/05/11 13:45:59;;;;;;;;;;;28.70;40.40;;;;;;5128263;27;889;-46
2022/05/11 13:48:27;;;;;;;;;;;28.70;40.40;;;;;;5126698;27;932;-46
2022/05/11 13:51:05;;;;;;;;;;;28.70;40.20;;;;;;5127011;27;692;-46
2022/05/11 13:53:33;;;;;;;;;;;28.70;40.10;;;;;;5126060;27;1233;-46
2022/05/11 13:56:02;;;;;;;;;;;28.80;40.10;;;;;;5125554;27;977;-46
2022/05/11 13:58:34;;;;;;;;;;;28.80;40.10;;;;;;5124117;27;897;-46
2022/05/11 14:01:03;;;;;;;;;;;28.80;40.10;;;;;;5126633;27;1905;-45
2022/05/11 14:03:33;;;;;;;;;;;28.80;40.00;;;;;;5125541;27;1086;-46
2022/05/11 14:05:59;;;;;;;;;;;28.80;40.00;;;;;;5126418;27;897;-46
2022/05/11 14:08:27;;;;;;;;;;;28.90;40.10;;;;;;5122318;27;886;-47
2022/05/11 14:10:54;;;;;;;;;;;29.00;40.10;;;;;;5126266;27;1019;-47
2022/05/11 14:13:21;;;;;;;;;;;29.00;40.50;;;;;;5127554;27;1061;-47
2022/05/11 14:15:48;;;;;;;;;;;29.00;40.70;;;;;;5127406;27;1008;-47
2022/05/11 14:18:20;;;;;;;;;;;29.00;40.60;;;;;;5129876;27;914;-47
2022/05/11 14:20:47;;;;;;;;;;;29.00;40.60;;;;;;5129126;27;1912;-48
2022/05/11 14:23:13;;;;;;;;;;;29.10;40.50;;;;;;5130681;27;936;-47
2022/05/11 14:25:40;;;;;;;;;;;29.10;40.50;;;;;;5127897;27;893;-44
2022/05/11 14:28:07;;;;;;;;;;;29.10;40.50;;;;;;5129706;27;1112;-45
2022/05/11 14:30:38;;;;;;;;;;;29.10;40.40;;;;;;5129525;27;967;-44
2022/05/11 14:36:20;;;;;;;;;;;29.10;40.40;;;;;;5073988;27;1314;-44
2022/05/11 14:38:47;;;;;;;;;;;29.20;40.30;;;;;;5128698;27;1101;-44
2022/05/11 14:41:14;;;;;;;;;;;29.20;40.20;;;;;;5129748;27;1972;-44
2022/05/11 14:43:41;;;;;;;;;;;29.20;40.20;;;;;;5127005;27;1011;-48
2022/05/11 14:46:11;;;;;;;;;;;29.30;40.10;;;;;;5126556;27;937;-47
2022/05/11 14:48:38;;;;;;;;;;;29.30;40.10;;;;;;5128066;27;931;-47
2022/05/11 14:51:05;;;;;;;;;;;29.40;40.10;;;;;;5127313;27;868;-43
2022/05/11 14:53:33;;;;;;;;;;;29.30;40.10;;;;;;5125998;27;1085;-44
2022/05/11 14:56:01;;;;;;;;;;;29.40;40.10;;;;;;5128211;27;872;-45
2022/05/11 15:04:00;;;;;;;;;;;29.40;40.10;;;;;;5124893;28;994;-45
2022/05/11 15:06:27;;;;;;;;;;;29.40;40.00;;;;;;5125549;28;936;-45
2022/05/11 15:08:55;;;;;;;;;;;29.40;40.00;;;;;;5127299;28;989;-47
2022/05/11 15:14:06;;;;;;;;;;;29.50;40.30;;;;;;5125560;28;603;-44
2022/05/11 15:16:33;;;;;;;;;;;29.60;40.20;;;;;;5125816;28;1008;-44
2022/05/11 15:19:00;;;;;;;;;;;29.50;40.10;;;;;;5125428;28;967;-44
2022/05/11 15:21:27;;;;;;;;;;;29.60;40.00;;;;;;5125945;28;1984;-44
2022/05/11 15:23:55;;;;;;;;;;;29.60;40.10;;;;;;5126768;28;1007;-44
2022/05/11 15:26:21;;;;;;;;;;;29.70;40.00;;;;;;5126072;28;1006;-44
2022/05/11 15:28:48;;;;;;;;;;;29.70;40.00;;;;;;5125509;28;1062;-43
2022/05/11 15:31:15;;;;;;;;;;;29.70;41.20;;;;;;5126626;28;1008;-45
2022/05/11 15:33:42;;;;;;;;;;;29.70;40.10;;;;;;5126658;28;1011;-43
2022/05/11 15:36:09;;;;;;;;;;;29.70;40.10;;;;;;5128014;28;1106;-45
2022/05/11 15:38:36;;;;;;;;;;;29.70;40.00;;;;;;5127252;28;904;-44
2022/05/11 15:41:07;;;;;;;;;;;29.70;40.00;;;;;;5129060;28;1976;-44
2022/05/11 15:43:34;;;;;;;;;;;29.80;40.00;;;;;;5126480;28;1048;-43
2022/05/11 15:46:02;;;;;;;;;;;29.80;40.10;;;;;;5127129;28;1822;-44